Time;durP1;ratioP1;P1;durP2;ratioP2;P2;SDS_P1;SDS_P2;PMS_P1;PMS_P2;Temp;Humidity;BMP_temperature;BMP_pressure;BME280_temperature;BME280_humidity;BME280_pressure;Samples;Min_cycle;Max_cycle;Signal;HPM_P1;HPM_P2
2022/11/10 00:02:30;;;;;;;1.75;0.40;;;9.70;94.40;;;;;;4972225;28;20603;-81
2022/11/10 00:05:20;;;;;;;7.88;0.70;;;9.80;94.40;;;;;;4964637;28;20132;-80
2022/11/10 00:08:07;;;;;;;3.35;0.63;;;9.80;94.50;;;;;;4948340;28;20061;-81
2022/11/10 00:10:56;;;;;;;2.92;0.50;;;9.80;94.40;;;;;;4961792;28;20054;-81
2022/11/10 00:17:00;;;;;;;1.80;0.40;;;9.70;94.40;;;;;;4964466;28;20144;-81
2022/11/10 00:19:47;;;;;;;1.90;0.60;;;9.70;94.50;;;;;;4950633;28;20141;-84
2022/11/10 00:22:35;;;;;;;2.42;0.30;;;9.70;94.50;;;;;;4948580;28;20061;-80
2022/11/10 00:25:20;;;;;;;0.60;0.20;;;9.60;94.60;;;;;;4936224;28;20423;-80
2022/11/10 00:28:06;;;;;;;1.80;0.30;;;9.60;94.60;;;;;;4974923;28;20057;-81
2022/11/10 00:30:51;;;;;;;1.52;0.30;;;9.50;94.60;;;;;;4931709;28;20066;-80
2022/11/10 00:33:39;;;;;;;1.65;0.32;;;9.50;94.70;;;;;;4971911;28;20133;-80
2022/11/10 00:36:25;;;;;;;0.82;0.20;;;9.50;94.70;;;;;;4948206;28;20156;-80
2022/11/10 00:39:11;;;;;;;1.73;0.30;;;9.40;94.90;;;;;;4948112;28;20141;-88
2022/11/10 00:41:56;;;;;;;4.65;0.50;;;9.40;94.70;;;;;;4962293;28;20057;-88
2022/11/10 00:44:42;;;;;;;1.67;0.38;;;9.40;94.70;;;;;;4949444;28;20238;-88
2022/11/10 00:47:28;;;;;;;0.73;0.30;;;9.40;94.70;;;;;;4936339;28;20623;-88
2022/11/10 00:50:13;;;;;;;0.80;0.40;;;9.40;94.70;;;;;;4937915;28;20461;-88
2022/11/10 00:52:59;;;;;;;5.68;1.05;;;9.40;94.70;;;;;;4945340;28;20407;-89
2022/11/10 00:55:45;;;;;;;2.97;0.50;;;9.40;94.80;;;;;;4940264;28;20510;-88
2022/11/10 00:58:30;;;;;;;3.78;0.60;;;9.50;94.70;;;;;;4931399;28;20062;-88
2022/11/10 01:01:20;;;;;;;2.17;0.70;;;9.40;94.70;;;;;;4937114;28;20130;-88
2022/11/10 01:04:06;;;;;;;3.40;0.63;;;9.40;94.70;;;;;;4963260;28;20053;-88
2022/11/10 01:06:51;;;;;;;4.40;0.50;;;9.50;94.70;;;;;;4971505;28;20049;-87
2022/11/10 01:09:37;;;;;;;1.83;0.47;;;9.50;94.70;;;;;;4946825;28;20058;-80
2022/11/10 01:12:23;;;;;;;3.17;0.65;;;9.50;94.70;;;;;;4960885;28;20057;-80
2022/11/10 01:15:09;;;;;;;3.55;0.77;;;9.50;94.70;;;;;;4954179;28;20126;-80
2022/11/10 01:17:55;;;;;;;2.38;0.50;;;9.50;94.70;;;;;;4958271;28;20191;-79
2022/11/10 01:20:40;;;;;;;1.92;0.57;;;9.50;94.70;;;;;;4960513;28;20582;-80
2022/11/10 01:23:29;;;;;;;3.95;1.38;;;9.50;94.70;;;;;;4941874;28;20074;-80
2022/11/10 01:26:15;;;;;;;3.58;0.60;;;9.50;94.70;;;;;;4946795;28;20053;-80
2022/11/10 01:29:04;;;;;;;3.63;0.60;;;9.50;94.70;;;;;;4975010;28;20050;-81
2022/11/10 01:31:49;;;;;;;2.28;0.90;;;9.50;94.70;;;;;;4959343;28;20057;-89
2022/11/10 01:34:34;;;;;;;2.03;0.68;;;9.50;94.80;;;;;;4948296;28;20054;-89
2022/11/10 01:37:20;;;;;;;2.58;0.60;;;9.50;94.80;;;;;;4961092;28;20527;-88
2022/11/10 01:40:06;;;;;;;5.50;0.68;;;9.40;94.80;;;;;;4961290;28;20419;-87
2022/11/10 01:42:55;;;;;;;1.48;0.50;;;9.40;94.80;;;;;;4961458;28;20058;-87
2022/11/10 01:46:03;;;;;;;4.65;0.70;;;9.40;94.80;;;;;;4961359;28;20058;-88
2022/11/10 01:48:58;;;;;;;2.75;0.43;;;9.40;94.90;;;;;;4974738;28;20061;-87
2022/11/10 01:51:51;;;;;;;1.42;0.38;;;9.30;94.90;;;;;;4974345;28;20053;-87
2022/11/10 01:54:42;;;;;;;1.63;0.60;;;9.30;94.90;;;;;;4974429;28;20070;-87
2022/11/10 01:57:28;;;;;;;2.05;0.50;;;9.30;94.90;;;;;;4957910;28;20527;-87
2022/11/10 02:00:13;;;;;;;1.45;0.40;;;9.30;94.90;;;;;;4974960;28;20228;-89
2022/11/10 02:03:21;;;;;;;1.60;0.40;;;9.30;94.90;;;;;;4961534;28;20062;-88
2022/11/10 02:06:09;;;;;;;3.17;0.40;;;9.30;94.90;;;;;;4974881;28;20238;-88
2022/11/10 02:08:58;;;;;;;2.13;0.55;;;9.30;95.00;;;;;;4968297;28;20097;-88
2022/11/10 02:11:45;;;;;;;2.35;0.63;;;9.30;95.00;;;;;;4938598;28;20065;-88
2022/11/10 02:14:32;;;;;;;2.45;0.90;;;9.30;95.00;;;;;;4963936;28;20058;-85
2022/11/10 02:17:17;;;;;;;4.18;0.90;;;9.40;95.00;;;;;;4980961;28;20062;-85
2022/11/10 02:20:08;;;;;;;7.38;1.55;;;9.40;95.10;;;;;;4947151;28;20058;-85
2022/11/10 02:22:54;;;;;;;6.03;1.30;;;9.50;95.10;;;;;;4974124;28;20129;-87
2022/11/10 02:25:40;;;;;;;3.90;1.30;;;9.50;95.10;;;;;;4951433;28;20057;-88
2022/11/10 02:28:26;;;;;;;6.03;2.08;;;9.50;95.00;;;;;;4947154;28;20105;-87
2022/11/10 02:31:12;;;;;;;7.65;1.60;;;9.60;95.10;;;;;;4949885;28;20121;-87
2022/11/10 02:33:57;;;;;;;5.85;1.70;;;9.60;95.10;;;;;;4950009;28;20566;-80
2022/11/10 02:36:48;;;;;;;2.10;0.63;;;9.70;95.10;;;;;;4953974;28;20204;-80
2022/11/10 02:39:33;;;;;;;2.20;0.60;;;9.70;95.00;;;;;;4974046;28;20514;-79
2022/11/10 02:42:18;;;;;;;2.28;0.77;;;9.70;95.00;;;;;;4933921;28;20105;-80
2022/11/10 02:45:04;;;;;;;1.65;0.43;;;9.70;95.00;;;;;;4945914;28;20528;-80
2022/11/10 02:47:50;;;;;;;2.38;0.68;;;9.70;95.00;;;;;;4948117;28;20168;-80
2022/11/10 02:50:36;;;;;;;2.60;0.88;;;9.70;95.00;;;;;;4950039;28;20054;-80
2022/11/10 02:53:21;;;;;;;6.20;1.33;;;9.80;95.00;;;;;;4955006;28;20050;-79
2022/11/10 02:56:08;;;;;;;5.50;1.00;;;9.80;95.10;;;;;;4935868;28;20419;-79
2022/11/10 02:58:54;;;;;;;3.97;0.70;;;9.80;95.00;;;;;;4949589;28;20126;-79
2022/11/10 03:01:39;;;;;;;5.22;1.17;;;9.80;95.00;;;;;;4966491;28;20522;-80
2022/11/10 03:04:25;;;;;;;4.97;1.02;;;9.80;95.00;;;;;;4962955;28;20125;-80
2022/11/10 03:07:11;;;;;;;2.35;0.80;;;9.90;95.00;;;;;;4954604;28;20053;-80
2022/11/10 03:09:56;;;;;;;6.85;1.02;;;9.80;95.00;;;;;;4950040;28;20053;-80
2022/11/10 03:12:42;;;;;;;8.98;1.90;;;9.80;95.00;;;;;;4968955;28;20208;-80
2022/11/10 03:15:28;;;;;;;4.28;1.45;;;9.80;95.10;;;;;;4977900;28;20053;-80
2022/11/10 03:18:13;;;;;;;4.68;1.20;;;9.70;95.10;;;;;;4995269;28;20103;-81
2022/11/10 03:21:00;;;;;;;5.97;1.88;;;9.70;95.20;;;;;;4968237;28;20045;-81
2022/11/10 03:23:49;;;;;;;5.68;1.23;;;9.70;95.20;;;;;;4955051;28;20060;-80
2022/11/10 03:26:34;;;;;;;2.80;0.95;;;9.70;95.30;;;;;;4958906;28;20141;-81
2022/11/10 03:29:20;;;;;;;8.57;1.85;;;9.60;95.20;;;;;;4982029;28;20053;-81
2022/11/10 03:32:05;;;;;;;4.65;1.38;;;9.60;95.30;;;;;;4946851;28;20057;-80
2022/11/10 03:34:51;;;;;;;4.28;1.27;;;9.60;95.40;;;;;;4965064;28;20053;-81
2022/11/10 03:37:36;;;;;;;4.63;1.05;;;9.60;95.40;;;;;;4971637;28;20053;-80
2022/11/10 03:40:22;;;;;;;6.95;1.33;;;9.60;95.40;;;;;;4954808;28;20105;-81
2022/11/10 03:43:11;;;;;;;2.58;0.80;;;9.50;95.40;;;;;;4987233;28;20064;-81
2022/11/10 03:45:56;;;;;;;3.47;1.00;;;9.50;95.40;;;;;;4981799;28;20061;-80
2022/11/10 03:48:42;;;;;;;5.93;0.80;;;9.50;95.50;;;;;;4968174;28;20058;-79
2022/11/10 03:51:33;;;;;;;5.40;1.55;;;9.40;95.50;;;;;;4976612;28;20073;-80
2022/11/10 03:54:18;;;;;;;3.83;1.35;;;9.40;95.50;;;;;;4945498;28;20176;-79
2022/11/10 03:57:05;;;;;;;5.50;1.00;;;9.40;95.50;;;;;;4981589;28;20527;-80
2022/11/10 03:59:50;;;;;;;3.92;0.60;;;9.40;95.50;;;;;;4974390;28;20188;-80
2022/11/10 04:02:36;;;;;;;6.97;0.50;;;9.40;95.50;;;;;;4967899;28;20049;-80
2022/11/10 04:17:38;;;;;;;1.98;0.68;;;9.30;95.60;;;;;;4956459;28;20065;-88
2022/11/10 04:20:23;;;;;;;3.50;0.88;;;9.30;95.60;;;;;;4949960;28;20069;-88
2022/11/10 04:23:27;;;;;;;6.97;1.05;;;9.30;95.60;;;;;;4944769;29;20511;-88
2022/11/10 04:26:29;;;;;;;4.68;0.73;;;9.20;95.60;;;;;;4937005;29;20122;-88
2022/11/10 04:29:16;;;;;;;2.00;0.70;;;9.20;95.60;;;;;;4963014;28;20607;-85
2022/11/10 04:32:02;;;;;;;2.45;0.90;;;9.20;95.60;;;;;;4974546;28;20065;-87
2022/11/10 04:34:48;;;;;;;1.65;0.70;;;9.20;95.60;;;;;;4959374;28;20093;-85
2022/11/10 04:37:34;;;;;;;2.67;0.50;;;9.20;95.70;;;;;;4943610;28;20053;-86
2022/11/10 04:40:19;;;;;;;3.38;0.77;;;9.20;95.70;;;;;;4959084;28;20073;-80
2022/11/10 04:43:05;;;;;;;4.25;0.70;;;9.20;95.70;;;;;;4933417;28;20626;-80
2022/11/10 04:45:50;;;;;;;3.53;0.70;;;9.20;95.70;;;;;;4958834;28;20049;-79
2022/11/10 04:48:36;;;;;;;3.42;1.05;;;9.20;95.60;;;;;;4948255;28;20069;-87
2022/11/10 04:51:26;;;;;;;6.13;0.90;;;9.30;95.70;;;;;;4962560;28;20057;-87
2022/11/10 04:54:12;;;;;;;1.92;0.70;;;9.30;95.70;;;;;;4960576;28;20197;-87
2022/11/10 04:56:57;;;;;;;2.38;0.60;;;9.30;95.60;;;;;;4927975;28;20530;-88
2022/11/10 04:59:43;;;;;;;2.22;0.57;;;9.30;95.60;;;;;;4934503;29;20523;-88
2022/11/10 05:02:28;;;;;;;3.72;0.90;;;9.30;95.60;;;;;;4930071;28;20049;-88
2022/11/10 05:05:14;;;;;;;4.22;1.02;;;9.30;95.60;;;;;;4937726;28;20056;-88
2022/11/10 05:07:59;;;;;;;3.20;0.88;;;9.40;95.70;;;;;;4975498;28;20045;-88
2022/11/10 05:10:45;;;;;;;4.90;0.73;;;9.40;95.60;;;;;;4954588;28;20073;-89
2022/11/10 05:13:31;;;;;;;1.88;0.50;;;9.40;95.60;;;;;;4948751;28;20053;-87
2022/11/10 05:16:19;;;;;;;4.50;0.70;;;9.30;95.60;;;;;;4968197;28;20057;-88
2022/11/10 05:19:05;;;;;;;2.55;0.70;;;9.30;95.70;;;;;;4967587;28;20061;-88
2022/11/10 05:21:50;;;;;;;3.53;0.50;;;9.30;95.60;;;;;;4973753;28;20065;-89
2022/11/10 05:24:36;;;;;;;2.53;0.80;;;9.30;95.60;;;;;;4980424;28;20062;-89
2022/11/10 05:27:23;;;;;;;2.75;0.98;;;9.30;95.70;;;;;;4954982;28;20061;-89
2022/11/10 05:30:09;;;;;;;7.60;0.93;;;9.30;95.70;;;;;;4954012;28;20057;-88
2022/11/10 05:32:55;;;;;;;4.35;0.93;;;9.30;95.60;;;;;;4987046;28;20061;-89
2022/11/10 05:35:43;;;;;;;9.05;1.60;;;9.40;95.70;;;;;;4961632;28;20066;-89
2022/11/10 05:38:29;;;;;;;3.60;0.88;;;9.40;95.70;;;;;;4979193;28;20418;-89
2022/11/10 05:41:14;;;;;;;5.18;1.00;;;9.40;95.70;;;;;;4974103;28;20056;-87
2022/11/10 05:44:00;;;;;;;5.00;0.90;;;9.40;95.70;;;;;;4955322;28;20052;-88
2022/11/10 05:46:48;;;;;;;4.57;1.20;;;9.30;95.70;;;;;;4964674;28;20132;-89
2022/11/10 05:49:33;;;;;;;4.88;1.30;;;9.30;95.80;;;;;;4973139;28;20104;-89
2022/11/10 05:52:18;;;;;;;3.30;0.90;;;9.30;95.70;;;;;;4947724;28;20069;-88
2022/11/10 05:55:04;;;;;;;3.80;0.90;;;9.30;95.80;;;;;;4972496;28;20132;-88
2022/11/10 05:57:52;;;;;;;5.68;1.70;;;9.20;96.10;;;;;;4967415;28;20065;-88
2022/11/10 06:00:37;;;;;;;4.25;0.80;;;9.20;95.90;;;;;;4995043;28;20134;-87
2022/11/10 06:03:23;;;;;;;5.40;1.05;;;9.20;95.80;;;;;;4957258;28;20049;-88
2022/11/10 06:06:10;;;;;;;4.22;0.63;;;9.20;95.90;;;;;;4982258;28;20057;-88
2022/11/10 06:08:55;;;;;;;4.53;1.02;;;9.20;95.90;;;;;;4980206;28;20053;-88
2022/11/10 06:11:41;;;;;;;4.07;0.85;;;9.20;95.90;;;;;;4994068;28;20069;-88
2022/11/10 06:14:26;;;;;;;5.88;1.15;;;9.20;95.90;;;;;;4966236;28;20057;-88
2022/11/10 06:17:12;;;;;;;3.83;0.60;;;9.10;95.90;;;;;;4966444;28;20065;-81
2022/11/10 06:19:57;;;;;;;3.65;0.65;;;9.10;96.00;;;;;;4965746;28;20545;-81
2022/11/10 06:22:43;;;;;;;1.75;0.40;;;9.00;96.00;;;;;;4964983;28;20506;-80
2022/11/10 06:25:34;;;;;;;2.42;0.52;;;9.00;96.00;;;;;;4976739;28;20057;-81
2022/11/10 06:28:20;;;;;;;4.85;0.60;;;9.00;96.00;;;;;;4977835;28;20052;-79
2022/11/10 06:31:06;;;;;;;2.33;0.38;;;9.00;96.30;;;;;;4972109;28;20443;-80
2022/11/10 06:33:51;;;;;;;3.47;0.52;;;9.00;96.00;;;;;;4964388;28;20650;-81
2022/11/10 06:36:44;;;;;;;2.78;0.30;;;9.00;96.00;;;;;;4963784;28;20060;-81
2022/11/10 06:39:29;;;;;;;1.55;0.38;;;9.00;96.00;;;;;;4976963;28;20065;-81
2022/11/10 06:42:14;;;;;;;2.50;0.57;;;9.00;96.00;;;;;;4991933;28;20048;-80
2022/11/10 06:45:00;;;;;;;4.32;0.70;;;8.90;96.00;;;;;;4948584;28;20064;-81
2022/11/10 06:47:46;;;;;;;2.38;0.35;;;8.90;96.10;;;;;;4988492;28;20053;-82
2022/11/10 06:50:33;;;;;;;5.43;1.40;;;9.00;96.00;;;;;;4965941;28;20132;-80
2022/11/10 06:53:19;;;;;;;2.08;0.45;;;9.00;96.00;;;;;;4978810;28;20057;-80
2022/11/10 06:56:11;;;;;;;2.15;0.70;;;9.00;96.00;;;;;;4967874;28;20184;-81
2022/11/10 06:58:57;;;;;;;1.48;0.30;;;9.00;96.00;;;;;;4969081;28;20057;-81
2022/11/10 07:01:43;;;;;;;1.75;0.50;;;9.00;96.00;;;;;;4965022;28;20415;-81
2022/11/10 07:04:32;;;;;;;3.67;0.50;;;8.90;96.00;;;;;;4965307;28;20045;-81
2022/11/10 07:07:17;;;;;;;4.03;0.50;;;9.00;96.10;;;;;;4983945;28;20494;-81
2022/11/10 07:10:03;;;;;;;1.42;0.55;;;9.00;96.30;;;;;;4963789;28;20042;-82
2022/11/10 07:12:57;;;;;;;2.90;0.38;;;9.00;96.00;;;;;;4993276;28;20521;-81
2022/11/10 07:15:43;;;;;;;3.25;0.65;;;9.00;96.00;;;;;;4988843;28;20154;-81
2022/11/10 07:18:28;;;;;;;3.33;0.70;;;9.00;96.00;;;;;;4953442;28;20101;-80
2022/11/10 07:21:14;;;;;;;7.40;1.00;;;9.00;96.00;;;;;;4948421;28;20057;-81
2022/11/10 07:23:59;;;;;;;4.47;1.05;;;9.10;96.30;;;;;;4965263;28;20056;-81
2022/11/10 07:26:45;;;;;;;4.57;0.98;;;9.10;96.00;;;;;;4985209;28;20154;-81
2022/11/10 07:29:30;;;;;;;5.05;0.50;;;9.10;95.90;;;;;;4946440;28;20052;-81
2022/11/10 07:32:22;;;;;;;3.03;0.40;;;9.20;95.90;;;;;;4978904;28;20113;-80
2022/11/10 07:35:07;;;;;;;2.60;0.50;;;9.10;95.90;;;;;;4968939;28;20061;-79
2022/11/10 07:37:54;;;;;;;3.45;0.57;;;9.20;95.90;;;;;;4981838;28;20065;-81
2022/11/10 07:40:40;;;;;;;6.03;0.57;;;9.20;95.90;;;;;;4956487;28;20064;-81
2022/11/10 07:43:29;;;;;;;5.85;0.55;;;9.10;95.90;;;;;;4988670;28;20061;-82
2022/11/10 07:46:14;;;;;;;2.03;0.60;;;9.20;95.90;;;;;;4980265;28;20108;-78
2022/11/10 07:49:00;;;;;;;1.52;0.40;;;9.20;95.90;;;;;;4977051;28;20062;-80
2022/11/10 07:51:47;;;;;;;1.58;0.50;;;9.30;95.80;;;;;;4969332;28;20049;-81
2022/11/10 07:54:33;;;;;;;2.40;0.40;;;9.30;95.80;;;;;;4964150;28;20054;-81
2022/11/10 07:57:18;;;;;;;1.58;0.60;;;9.30;95.90;;;;;;4968454;28;20057;-81
2022/11/10 08:00:05;;;;;;;1.63;0.47;;;9.30;95.80;;;;;;4961182;28;20133;-81
2022/11/10 08:02:51;;;;;;;4.88;0.40;;;9.40;95.80;;;;;;4981216;28;20049;-81
2022/11/10 08:05:37;;;;;;;4.85;1.05;;;9.50;95.80;;;;;;4968488;28;20089;-81
2022/11/10 08:08:23;;;;;;;3.25;0.50;;;9.60;96.00;;;;;;4995827;28;20181;-82
2022/11/10 08:11:08;;;;;;;4.28;0.85;;;9.60;95.60;;;;;;4965011;28;20173;-80
2022/11/10 08:13:53;;;;;;;3.03;0.88;;;9.70;95.60;;;;;;4975670;28;20494;-82
2022/11/10 08:16:41;;;;;;;5.50;0.70;;;9.70;95.60;;;;;;4941267;28;20069;-80
2022/11/10 08:19:27;;;;;;;4.15;0.60;;;9.80;95.50;;;;;;4967479;28;20186;-81
2022/11/10 08:22:13;;;;;;;3.30;0.80;;;9.80;95.40;;;;;;4977287;28;20510;-81
2022/11/10 08:24:58;;;;;;;3.97;0.80;;;9.90;95.40;;;;;;4992506;28;20045;-82
2022/11/10 08:27:44;;;;;;;2.92;0.55;;;10.00;95.40;;;;;;4957377;28;20057;-80
2022/11/10 08:30:33;;;;;;;3.70;0.70;;;10.00;95.30;;;;;;4967669;28;20503;-81
2022/11/10 08:33:20;;;;;;;3.75;0.88;;;10.10;95.30;;;;;;4984127;28;20061;-80
2022/11/10 08:36:07;;;;;;;2.97;0.70;;;10.10;95.30;;;;;;4973862;28;20425;-81
2022/11/10 08:38:52;;;;;;;5.95;0.85;;;10.20;95.30;;;;;;4960161;28;20560;-80
2022/11/10 08:41:38;;;;;;;3.55;0.70;;;10.20;95.20;;;;;;4967357;28;20140;-80
2022/11/10 08:44:24;;;;;;;3.53;1.17;;;10.30;95.20;;;;;;4966966;28;20049;-79
2022/11/10 08:47:09;;;;;;;3.10;1.05;;;10.40;95.20;;;;;;4954039;28;20056;-80
2022/11/10 08:49:55;;;;;;;7.13;1.15;;;10.40;95.20;;;;;;4959425;28;20081;-80
2022/11/10 08:52:40;;;;;;;3.42;1.40;;;10.60;95.20;;;;;;4967182;28;20144;-80
2022/11/10 08:55:26;;;;;;;6.95;1.67;;;10.60;95.00;;;;;;4948790;28;20403;-81
2022/11/10 08:58:20;;;;;;;5.15;1.27;;;10.70;95.00;;;;;;4982324;28;20514;-81
2022/11/10 09:01:10;;;;;;;4.20;0.75;;;10.80;95.00;;;;;;4978400;28;20167;-81
2022/11/10 09:03:58;;;;;;;4.07;0.93;;;10.90;94.90;;;;;;4987596;28;20061;-81
2022/11/10 09:06:44;;;;;;;5.53;1.30;;;10.90;94.90;;;;;;4958660;28;20080;-80
2022/11/10 09:09:29;;;;;;;6.80;1.52;;;10.90;94.90;;;;;;4992763;28;20113;-81
2022/11/10 09:12:15;;;;;;;5.88;1.38;;;11.00;94.90;;;;;;4947217;28;20186;-82
2022/11/10 09:15:04;;;;;;;6.20;0.95;;;11.00;94.90;;;;;;4954776;28;20069;-87
2022/11/10 09:17:49;;;;;;;8.48;1.70;;;11.00;94.90;;;;;;4954563;28;20463;-85
2022/11/10 09:20:36;;;;;;;4.70;1.60;;;11.00;94.90;;;;;;4976000;28;20522;-86
2022/11/10 09:23:23;;;;;;;6.68;1.45;;;11.10;94.90;;;;;;4966266;28;20154;-86
2022/11/10 09:26:10;;;;;;;9.73;1.80;;;11.10;94.90;;;;;;4967343;28;20128;-87
2022/11/10 09:28:55;;;;;;;8.70;1.17;;;11.10;94.90;;;;;;4982656;28;20052;-89
2022/11/10 09:31:47;;;;;;;9.90;2.08;;;11.20;94.90;;;;;;4964054;28;20058;-89
2022/11/10 09:34:33;;;;;;;8.98;1.38;;;11.20;94.90;;;;;;4988501;28;20068;-91
2022/11/10 09:37:57;;;;;;;5.60;1.00;;;11.20;94.90;;;;;;4980476;28;20147;-86
2022/11/10 09:41:01;;;;;;;2.78;0.85;;;11.30;95.10;;;;;;4940380;28;20149;-88
2022/11/10 09:44:03;;;;;;;6.72;1.30;;;11.30;94.80;;;;;;4978357;28;20411;-85
2022/11/10 09:47:17;;;;;;;5.20;1.55;;;11.40;94.80;;;;;;4987968;28;20048;-80
2022/11/10 09:50:59;;;;;;;5.17;1.20;;;11.40;94.70;;;;;;4993711;28;20044;-81
2022/11/10 09:54:17;;;;;;;5.88;0.77;;;11.50;94.70;;;;;;4980063;28;20357;-81
2022/11/10 09:57:05;;;;;;;2.83;0.60;;;11.60;94.70;;;;;;4980381;28;20057;-80
2022/11/10 09:59:54;;;;;;;5.70;1.42;;;11.60;94.70;;;;;;4980114;28;20054;-80
2022/11/10 10:02:46;;;;;;;3.92;1.00;;;11.70;94.60;;;;;;4965847;28;20049;-80
2022/11/10 10:06:01;;;;;;;9.05;1.45;;;11.70;94.60;;;;;;4980862;28;20053;-80
2022/11/10 10:09:11;;;;;;;7.50;1.30;;;11.80;94.50;;;;;;4990269;28;20053;-81
2022/11/10 10:12:09;;;;;;;8.73;1.70;;;11.80;94.50;;;;;;4977947;28;20053;-80
2022/11/10 10:15:14;;;;;;;11.02;2.08;;;11.90;94.40;;;;;;4972097;28;20113;-81
2022/11/10 10:18:06;;;;;;;5.63;1.33;;;12.00;94.40;;;;;;4992693;28;20122;-81
2022/11/10 10:21:19;;;;;;;8.88;1.75;;;12.10;94.30;;;;;;4993643;28;20142;-80
2022/11/10 10:24:11;;;;;;;11.15;2.45;;;12.20;94.20;;;;;;4970732;28;20049;-81
2022/11/10 10:27:17;;;;;;;9.88;1.65;;;12.20;94.20;;;;;;4969215;28;20050;-80
2022/11/10 10:30:12;;;;;;;5.82;1.10;;;12.20;94.20;;;;;;4996669;28;20458;-81
2022/11/10 10:33:10;;;;;;;4.95;1.08;;;12.40;94.20;;;;;;4984249;28;20065;-81
2022/11/10 10:36:08;;;;;;;8.95;2.30;;;12.60;94.30;;;;;;4992290;28;20061;-81
2022/11/10 10:38:59;;;;;;;9.63;2.08;;;12.70;93.60;;;;;;4983736;28;20422;-80
2022/11/10 10:41:45;;;;;;;8.60;1.50;;;12.80;93.50;;;;;;4980245;28;20065;-81
2022/11/10 10:44:33;;;;;;;12.00;1.05;;;12.80;93.50;;;;;;4993830;28;20108;-80
2022/11/10 10:47:35;;;;;;;11.77;1.33;;;12.80;93.60;;;;;;4959273;28;20399;-80
2022/11/10 10:50:33;;;;;;;4.63;0.73;;;12.80;93.60;;;;;;4977828;28;20128;-79
2022/11/10 10:53:22;;;;;;;3.95;0.60;;;12.80;93.70;;;;;;5010763;28;20199;-79
2022/11/10 10:56:17;;;;;;;6.40;0.82;;;12.80;93.70;;;;;;4978475;28;20109;-81
2022/11/10 10:59:15;;;;;;;6.03;1.02;;;12.90;93.60;;;;;;4981694;28;20053;-81
2022/11/10 11:02:04;;;;;;;3.40;0.70;;;12.90;93.50;;;;;;4976468;28;20201;-81
2022/11/10 11:05:07;;;;;;;9.98;1.27;;;13.00;93.50;;;;;;4961082;28;20046;-81
2022/11/10 11:07:59;;;;;;;6.90;1.10;;;13.10;93.20;;;;;;4979277;28;20181;-80
2022/11/10 11:10:48;;;;;;;5.85;1.15;;;13.20;93.20;;;;;;4994494;28;20144;-81
2022/11/10 11:13:34;;;;;;;5.57;1.30;;;13.30;93.20;;;;;;4977617;28;20105;-82
2022/11/10 11:16:19;;;;;;;6.82;1.58;;;13.40;92.90;;;;;;4982803;28;20166;-81
2022/11/10 11:19:07;;;;;;;7.55;1.60;;;13.60;92.80;;;;;;4969644;28;20085;-83
2022/11/10 11:22:11;;;;;;;10.90;1.77;;;13.70;92.30;;;;;;4969921;28;20061;-82
2022/11/10 11:25:25;;;;;;;6.75;0.90;;;13.70;92.20;;;;;;4988607;28;20419;-85
2022/11/10 11:28:34;;;;;;;4.63;1.25;;;13.80;92.20;;;;;;4991753;28;20053;-82
2022/11/10 11:31:51;;;;;;;5.60;0.90;;;13.80;92.30;;;;;;4985665;28;20053;-82
2022/11/10 11:35:15;;;;;;;6.93;0.90;;;13.80;92.30;;;;;;4987935;28;20058;-78
2022/11/10 11:38:07;;;;;;;;;;;13.90;92.30;;;;;;4996176;28;20422;-80
2022/11/10 11:41:14;;;;;;;4.32;0.77;;;13.80;92.20;;;;;;4980253;28;20056;-81
2022/11/10 11:44:15;;;;;;;2.97;0.90;;;13.90;92.20;;;;;;4964730;28;20057;-81
2022/11/10 11:47:26;;;;;;;4.90;0.80;;;13.90;92.20;;;;;;4982965;28;20053;-80
2022/11/10 11:50:32;;;;;;;4.88;0.65;;;13.90;92.30;;;;;;4989341;28;20105;-80
2022/11/10 11:53:41;;;;;;;5.18;1.13;;;13.90;92.30;;;;;;4992673;28;20072;-80
2022/11/10 11:56:37;;;;;;;10.18;1.08;;;14.00;91.90;;;;;;4969853;28;20053;-79
2022/11/10 11:59:49;;;;;;;9.82;1.30;;;13.90;91.90;;;;;;4988689;28;20577;-83
2022/11/10 12:02:57;;;;;;;5.57;1.17;;;14.10;91.50;;;;;;4981528;28;20058;-82
2022/11/10 12:06:10;;;;;;;9.85;1.90;;;14.10;91.50;;;;;;4986885;28;20444;-84
2022/11/10 12:09:05;;;;;;;;;;;14.20;91.40;;;;;;4962565;28;20058;-83
2022/11/10 12:12:09;;;;;;;6.55;1.10;;;14.20;91.30;;;;;;4967679;28;19928;-80
2022/11/10 12:15:30;;;;;;;12.27;1.65;;;14.30;91.40;;;;;;4948141;28;20404;-82
2022/11/10 12:18:20;;;;;;;8.00;1.30;;;14.40;90.90;;;;;;4938024;28;20590;-83
2022/11/10 12:21:28;;;;;;;4.03;1.00;;;14.40;90.80;;;;;;4965913;28;20062;-85
2022/11/10 12:24:41;;;;;;;5.20;1.02;;;14.50;90.80;;;;;;4954483;28;20050;-83
2022/11/10 12:27:39;;;;;;;4.63;0.77;;;14.60;90.90;;;;;;4959721;28;20186;-81
2022/11/10 12:31:07;;;;;;;6.47;0.70;;;14.60;90.80;;;;;;4963471;28;20098;-83
2022/11/10 12:34:03;;;;;;;5.35;0.95;;;14.70;90.70;;;;;;4950875;28;20137;-81
2022/11/10 12:36:50;;;;;;;5.82;1.08;;;14.80;90.40;;;;;;4975787;28;20066;-83
2022/11/10 12:39:36;;;;;;;5.40;1.20;;;14.90;90.40;;;;;;4975898;28;20054;-83
2022/11/10 12:42:26;;;;;;;9.68;1.20;;;15.00;90.20;;;;;;4950237;28;20056;-80
2022/11/10 12:45:25;;;;;;;5.35;1.00;;;15.10;89.80;;;;;;4961321;28;20054;-80
2022/11/10 12:48:19;;;;;;;5.35;0.77;;;15.00;89.80;;;;;;4961639;28;20101;-82
2022/11/10 12:51:29;;;;;;;4.65;0.98;;;15.10;89.70;;;;;;4948315;28;20451;-81
2022/11/10 12:54:16;;;;;;;5.05;0.98;;;15.10;89.40;;;;;;4945904;28;20054;-80
2022/11/10 12:57:22;;;;;;;12.52;1.42;;;15.00;89.80;;;;;;4961063;28;20105;-83
2022/11/10 13:00:25;;;;;;;4.97;0.70;;;15.00;89.40;;;;;;4961760;28;20182;-83
2022/11/10 13:03:23;;;;;;;4.05;0.60;;;15.00;89.80;;;;;;4968356;28;20070;-81
2022/11/10 13:06:28;;;;;;;8.43;0.90;;;14.90;89.80;;;;;;4982837;28;20054;-83
2022/11/10 13:09:35;;;;;;;3.92;1.20;;;15.00;89.40;;;;;;4988850;28;20053;-83
2022/11/10 13:12:22;;;;;;;3.47;0.47;;;15.00;89.70;;;;;;4975416;28;20048;-80
2022/11/10 13:15:39;;;;;;;4.45;0.40;;;15.00;90.00;;;;;;4984180;28;20120;-90
2022/11/10 13:18:30;;;;;;;2.40;0.40;;;15.10;89.90;;;;;;4980526;28;20111;-79
2022/11/10 13:21:16;;;;;;;4.72;0.50;;;15.20;90.00;;;;;;4990151;28;20104;-81
2022/11/10 13:24:24;;;;;;;5.43;0.50;;;15.20;89.70;;;;;;4978648;28;20480;-81
2022/11/10 13:27:12;;;;;;;3.28;0.63;;;15.30;89.60;;;;;;4973505;28;20046;-79
2022/11/10 13:29:58;;;;;;;3.53;0.63;;;15.30;88.90;;;;;;4977837;28;20069;-80
2022/11/10 13:32:44;;;;;;;4.70;0.50;;;15.20;89.20;;;;;;5002582;28;20053;-81
2022/11/10 13:35:37;;;;;;;2.65;0.85;;;15.20;89.20;;;;;;4973499;28;20450;-81
2022/11/10 13:38:31;;;;;;;6.25;0.60;;;15.20;89.20;;;;;;4996836;28;20200;-79
2022/11/10 13:41:17;;;;;;;4.70;0.63;;;15.20;88.70;;;;;;4986541;28;20053;-80
2022/11/10 13:44:18;;;;;;;5.05;0.50;;;15.10;88.90;;;;;;4981611;28;20530;-82
2022/11/10 13:47:07;;;;;;;2.90;1.02;;;15.10;89.20;;;;;;4980529;28;20128;-81
2022/11/10 13:49:55;;;;;;;5.10;0.98;;;15.00;89.00;;;;;;4985224;28;20061;-81
2022/11/10 13:52:50;;;;;;;3.05;0.85;;;15.00;89.10;;;;;;4975566;28;20104;-81
2022/11/10 13:55:47;;;;;;;1.13;0.30;;;14.90;89.20;;;;;;4993009;28;20057;-81
2022/11/10 13:58:35;;;;;;;3.53;0.50;;;14.90;89.50;;;;;;4979078;28;20128;-82
2022/11/10 14:01:29;;;;;;;3.72;0.63;;;14.90;89.30;;;;;;4962778;28;20557;-81
2022/11/10 14:04:39;;;;;;;3.05;0.50;;;14.80;89.40;;;;;;4981225;28;20073;-81
2022/11/10 14:07:28;;;;;;;4.93;0.40;;;14.80;89.40;;;;;;4967533;28;20155;-82
2022/11/10 14:10:17;;;;;;;4.80;0.70;;;14.80;89.30;;;;;;4973039;28;20050;-82
2022/11/10 14:13:40;;;;;;;2.60;0.40;;;14.70;89.90;;;;;;4973029;28;20082;-82
2022/11/10 14:16:30;;;;;;;6.70;0.82;;;14.70;89.40;;;;;;4971894;28;20057;-82
2022/11/10 14:19:38;;;;;;;3.08;0.30;;;14.60;89.60;;;;;;4972888;28;20193;-81
2022/11/10 14:22:33;;;;;;;2.25;0.30;;;14.60;89.70;;;;;;4965324;28;20105;-81
2022/11/10 14:25:38;;;;;;;1.83;0.38;;;14.50;89.80;;;;;;4973167;28;20054;-81
2022/11/10 14:28:28;;;;;;;1.58;0.35;;;14.50;89.90;;;;;;4973295;28;20061;-81
2022/11/10 14:31:24;;;;;;;4.78;0.40;;;14.40;90.00;;;;;;4973463;28;20049;-82
2022/11/10 14:34:16;;;;;;;4.72;0.43;;;14.40;90.00;;;;;;4963909;28;20167;-85
2022/11/10 14:37:03;;;;;;;2.72;0.63;;;14.40;90.00;;;;;;4973233;28;20133;-85
2022/11/10 14:39:52;;;;;;;3.35;0.30;;;14.40;90.00;;;;;;4973298;28;20057;-86
2022/11/10 14:42:38;;;;;;;3.70;0.40;;;14.30;90.00;;;;;;4973960;28;20081;-83
2022/11/10 14:45:26;;;;;;;2.42;0.47;;;14.30;90.00;;;;;;4977300;28;20053;-82
2022/11/10 14:48:18;;;;;;;3.65;0.52;;;14.30;90.00;;;;;;4977726;28;20054;-82
2022/11/10 14:51:14;;;;;;;1.15;0.30;;;14.30;90.00;;;;;;4977139;28;20057;-82
2022/11/10 14:54:02;;;;;;;5.43;0.50;;;14.20;90.10;;;;;;4977163;28;20125;-83
2022/11/10 14:56:49;;;;;;;2.47;0.60;;;14.20;90.00;;;;;;4964303;28;20581;-82
2022/11/10 14:59:36;;;;;;;2.95;0.38;;;14.20;90.10;;;;;;4977179;28;20058;-81
2022/11/10 15:02:25;;;;;;;3.72;0.47;;;14.20;90.10;;;;;;4977441;28;20105;-87
2022/11/10 15:05:15;;;;;;;2.92;0.40;;;14.10;90.10;;;;;;4968100;28;20070;-83
2022/11/10 15:08:04;;;;;;;1.60;0.30;;;14.10;90.10;;;;;;4992243;28;20503;-85
2022/11/10 15:10:57;;;;;;;1.83;0.40;;;14.10;90.10;;;;;;4984639;28;20197;-83
2022/11/10 15:13:43;;;;;;;2.33;0.57;;;14.00;90.10;;;;;;4991482;28;20053;-84